sensor_id;sensor_type;location;lat;lon;timestamp;pressure;altitude;pressure_sealevel;temperature;humidity
84936;BME280;75210;52.210;20.902;2024-02-23T00:00:02;98327.13;;;8.96;68.68
84936;BME280;75210;52.210;20.902;2024-02-23T00:01:03;98323.66;;;8.95;68.71
84936;BME280;75210;52.210;20.902;2024-02-23T00:02:03;98321.16;;;8.94;69.55
84936;BME280;75210;52.210;20.902;2024-02-23T00:03:05;98328.06;;;8.95;68.84
84936;BME280;75210;52.210;20.902;2024-02-23T00:04:05;98311.47;;;8.94;69.39
84936;BME280;75210;52.210;20.902;2024-02-23T00:05:06;98292.47;;;8.80;69.04
84936;BME280;75210;52.210;20.902;2024-02-23T00:06:07;98303.81;;;8.80;69.34
84936;BME280;75210;52.210;20.902;2024-02-23T00:07:07;98285.19;;;8.72;69.30
84936;BME280;75210;52.210;20.902;2024-02-23T00:08:08;98251.38;;;8.56;68.72
84936;BME280;75210;52.210;20.902;2024-02-23T00:09:08;98287.19;;;8.80;69.50
84936;BME280;75210;52.210;20.902;2024-02-23T00:10:09;98324.25;;;8.99;69.63
84936;BME280;75210;52.210;20.902;2024-02-23T00:11:09;98313.97;;;8.96;69.12
84936;BME280;75210;52.210;20.902;2024-02-23T00:12:10;98284.34;;;8.83;68.95
84936;BME280;75210;52.210;20.902;2024-02-23T00:13:10;98324.84;;;9.02;69.40
84936;BME280;75210;52.210;20.902;2024-02-23T00:14:11;98299.78;;;8.87;69.43
84936;BME280;75210;52.210;20.902;2024-02-23T00:15:14;98320.78;;;9.10;68.96
84936;BME280;75210;52.210;20.902;2024-02-23T00:16:15;98330.22;;;9.12;68.77
84936;BME280;75210;52.210;20.902;2024-02-23T00:17:15;98317.78;;;9.14;68.85
84936;BME280;75210;52.210;20.902;2024-02-23T00:18:16;98322.06;;;9.15;68.96
84936;BME280;75210;52.210;20.902;2024-02-23T00:19:16;98314.91;;;9.06;69.19
84936;BME280;75210;52.210;20.902;2024-02-23T00:20:17;98314.44;;;9.12;69.01
84936;BME280;75210;52.210;20.902;2024-02-23T00:21:18;98323.28;;;9.11;68.83
84936;BME280;75210;52.210;20.902;2024-02-23T00:22:18;98314.56;;;9.11;68.83
84936;BME280;75210;52.210;20.902;2024-02-23T00:23:19;98320.28;;;9.16;68.79
84936;BME280;75210;52.210;20.902;2024-02-23T00:24:19;98310.75;;;9.15;68.96
84936;BME280;75210;52.210;20.902;2024-02-23T00:25:20;98312.66;;;9.13;68.94
84936;BME280;75210;52.210;20.902;2024-02-23T00:26:20;98316.25;;;9.12;69.05
84936;BME280;75210;52.210;20.902;2024-02-23T00:27:20;98325.09;;;9.11;68.64
84936;BME280;75210;52.210;20.902;2024-02-23T00:28:21;98318.28;;;9.08;68.41
84936;BME280;75210;52.210;20.902;2024-02-23T00:29:22;98306.09;;;8.96;69.40
84936;BME280;75210;52.210;20.902;2024-02-23T00:30:24;98296.63;;;8.93;68.94
84936;BME280;75210;52.210;20.902;2024-02-23T00:31:25;98300.94;;;9.06;68.86
84936;BME280;75210;52.210;20.902;2024-02-23T00:32:25;98312.66;;;9.13;68.77
84936;BME280;75210;52.210;20.902;2024-02-23T00:33:26;98313.59;;;9.12;68.85
84936;BME280;75210;52.210;20.902;2024-02-23T00:34:26;98303.09;;;9.12;68.81
84936;BME280;75210;52.210;20.902;2024-02-23T00:35:26;98314.56;;;9.11;68.79
84936;BME280;75210;52.210;20.902;2024-02-23T00:36:27;98247.56;;;8.72;68.79
84936;BME280;75210;52.210;20.902;2024-02-23T00:37:27;98311.81;;;9.12;68.69
84936;BME280;75210;52.210;20.902;2024-02-23T00:38:28;98315.16;;;9.14;68.93
84936;BME280;75210;52.210;20.902;2024-02-23T00:39:28;98316.81;;;9.15;68.99
84936;BME280;75210;52.210;20.902;2024-02-23T00:40:29;98304.41;;;9.06;69.31
84936;BME280;75210;52.210;20.902;2024-02-23T00:41:29;98298.31;;;9.06;69.06
84936;BME280;75210;52.210;20.902;2024-02-23T00:42:30;98302.25;;;9.11;69.09
84936;BME280;75210;52.210;20.902;2024-02-23T00:43:37;98301.75;;;9.17;69.25
84936;BME280;75210;52.210;20.902;2024-02-23T00:44:38;98299.00;;;9.19;69.08
84936;BME280;75210;52.210;20.902;2024-02-23T00:45:41;98300.31;;;9.24;68.79
84936;BME280;75210;52.210;20.902;2024-02-23T00:46:42;98298.75;;;9.22;69.07
84936;BME280;75210;52.210;20.902;2024-02-23T00:47:42;98286.47;;;9.11;68.85
84936;BME280;75210;52.210;20.902;2024-02-23T00:48:43;98304.16;;;9.20;68.96
84936;BME280;75210;52.210;20.902;2024-02-23T00:49:43;98258.75;;;8.96;68.91
84936;BME280;75210;52.210;20.902;2024-02-23T00:50:44;98298.75;;;9.22;69.09
84936;BME280;75210;52.210;20.902;2024-02-23T00:51:44;98241.44;;;8.82;69.17
84936;BME280;75210;52.210;20.902;2024-02-23T00:52:45;98300.69;;;9.20;69.17
84936;BME280;75210;52.210;20.902;2024-02-23T00:53:45;98280.38;;;9.11;69.28
84936;BME280;75210;52.210;20.902;2024-02-23T00:54:46;98276.91;;;9.10;69.25
84936;BME280;75210;52.210;20.902;2024-02-23T00:55:46;98292.34;;;9.15;69.03
84936;BME280;75210;52.210;20.902;2024-02-23T00:56:47;98289.09;;;9.11;69.32
84936;BME280;75210;52.210;20.902;2024-02-23T00:57:47;98237.75;;;8.85;69.06
84936;BME280;75210;52.210;20.902;2024-02-23T00:58:48;98288.88;;;9.14;69.38
84936;BME280;75210;52.210;20.902;2024-02-23T00:59:48;98281.22;;;9.11;69.64
84936;BME280;75210;52.210;20.902;2024-02-23T01:00:50;98280.38;;;9.11;69.38
84936;BME280;75210;52.210;20.902;2024-02-23T01:01:51;98286.22;;;9.14;69.46
84936;BME280;75210;52.210;20.902;2024-02-23T01:02:54;98283.81;;;9.22;68.78
84936;BME280;75210;52.210;20.902;2024-02-23T01:03:54;98280.69;;;9.17;69.06
84936;BME280;75210;52.210;20.902;2024-02-23T01:04:55;98285.25;;;9.15;69.59
84936;BME280;75210;52.210;20.902;2024-02-23T01:05:55;98279.03;;;9.16;69.39
84936;BME280;75210;52.210;20.902;2024-02-23T01:06:57;98279.31;;;9.13;69.36
84936;BME280;75210;52.210;20.902;2024-02-23T01:07:58;98276.78;;;9.12;69.36
84936;BME280;75210;52.210;20.902;2024-02-23T01:08:59;98273.19;;;9.13;69.32
84936;BME280;75210;52.210;20.902;2024-02-23T01:09:59;98271.75;;;9.09;69.71
84936;BME280;75210;52.210;20.902;2024-02-23T01:10:59;98244.66;;;8.97;69.58
84936;BME280;75210;52.210;20.902;2024-02-23T01:12:00;98268.78;;;9.13;69.31
84936;BME280;75210;52.210;20.902;2024-02-23T01:13:00;98248.94;;;8.98;69.59
84936;BME280;75210;52.210;20.902;2024-02-23T01:14:01;98273.56;;;9.08;69.87
84936;BME280;75210;52.210;20.902;2024-02-23T01:15:03;98252.31;;;9.00;69.74
84936;BME280;75210;52.210;20.902;2024-02-23T01:16:06;98273.19;;;9.13;69.78
84936;BME280;75210;52.210;20.902;2024-02-23T01:17:06;98260.41;;;9.08;69.41
84936;BME280;75210;52.210;20.902;2024-02-23T01:18:07;98265.88;;;9.16;69.43
84936;BME280;75210;52.210;20.902;2024-02-23T01:19:07;98263.84;;;9.20;69.19
84936;BME280;75210;52.210;20.902;2024-02-23T01:20:08;98259.41;;;9.20;69.77
84936;BME280;75210;52.210;20.902;2024-02-23T01:21:09;98237.09;;;9.04;69.11
84936;BME280;75210;52.210;20.902;2024-02-23T01:22:10;98254.66;;;9.14;69.47
84936;BME280;75210;52.210;20.902;2024-02-23T01:23:10;98259.78;;;9.16;69.58
84936;BME280;75210;52.210;20.902;2024-02-23T01:24:11;98186.03;;;8.74;69.33
84936;BME280;75210;52.210;20.902;2024-02-23T01:25:11;98226.84;;;9.00;69.29
84936;BME280;75210;52.210;20.902;2024-02-23T01:26:12;98253.00;;;9.13;69.13
84936;BME280;75210;52.210;20.902;2024-02-23T01:27:12;98260.28;;;9.10;69.70
84936;BME280;75210;52.210;20.902;2024-02-23T01:28:13;98215.16;;;8.82;69.52
84936;BME280;75210;52.210;20.902;2024-02-23T01:29:13;98263.03;;;9.08;69.76
84936;BME280;75210;52.210;20.902;2024-02-23T01:30:14;98253.22;;;9.10;69.76
84936;BME280;75210;52.210;20.902;2024-02-23T01:31:16;98261.13;;;9.10;69.66
84936;BME280;75210;52.210;20.902;2024-02-23T01:32:17;98269.00;;;9.10;69.75
84936;BME280;75210;52.210;20.902;2024-02-23T01:33:17;98265.31;;;9.13;69.74
84936;BME280;75210;52.210;20.902;2024-02-23T01:34:18;98258.94;;;9.15;69.77
84936;BME280;75210;52.210;20.902;2024-02-23T01:35:18;98260.38;;;9.19;69.65
84936;BME280;75210;52.210;20.902;2024-02-23T01:36:19;98247.63;;;9.04;69.88
84936;BME280;75210;52.210;20.902;2024-02-23T01:37:19;98272.56;;;9.20;69.97
84936;BME280;75210;52.210;20.902;2024-02-23T01:38:20;98264.91;;;9.17;69.50
84936;BME280;75210;52.210;20.902;2024-02-23T01:39:20;98232.78;;;9.02;69.50
84936;BME280;75210;52.210;20.902;2024-02-23T01:40:21;98256.31;;;9.26;69.22
84936;BME280;75210;52.210;20.902;2024-02-23T01:41:21;98260.47;;;9.29;68.76
84936;BME280;75210;52.210;20.902;2024-02-23T01:42:22;98239.72;;;9.15;69.36
84936;BME280;75210;52.210;20.902;2024-02-23T01:43:22;98259.19;;;9.23;69.47
84936;BME280;75210;52.210;20.902;2024-02-23T01:44:23;98249.13;;;9.17;68.86
84936;BME280;75210;52.210;20.902;2024-02-23T01:45:23;98258.69;;;9.18;69.43
84936;BME280;75210;52.210;20.902;2024-02-23T01:46:26;98257.97;;;9.16;69.30
84936;BME280;75210;52.210;20.902;2024-02-23T01:47:28;98270.06;;;9.19;69.59
84936;BME280;75210;52.210;20.902;2024-02-23T01:48:29;98261.72;;;9.14;69.75
84936;BME280;75210;52.210;20.902;2024-02-23T01:49:30;98237.25;;;9.02;69.70
84936;BME280;75210;52.210;20.902;2024-02-23T01:50:30;98273.53;;;9.19;70.22
84936;BME280;75210;52.210;20.902;2024-02-23T01:51:31;98271.50;;;9.23;69.92
84936;BME280;75210;52.210;20.902;2024-02-23T01:52:32;98265.50;;;9.32;69.54
84936;BME280;75210;52.210;20.902;2024-02-23T01:53:32;98253.53;;;9.28;69.14
84936;BME280;75210;52.210;20.902;2024-02-23T01:54:33;98260.69;;;9.37;69.08
84936;BME280;75210;52.210;20.902;2024-02-23T01:55:34;98271.47;;;9.34;69.16
84936;BME280;75210;52.210;20.902;2024-02-23T01:56:35;98265.50;;;9.32;69.13
84936;BME280;75210;52.210;20.902;2024-02-23T01:57:37;98276.84;;;9.32;69.29
84936;BME280;75210;52.210;20.902;2024-02-23T01:58:37;98262.25;;;9.28;69.57
84936;BME280;75210;52.210;20.902;2024-02-23T01:59:39;98259.63;;;9.28;69.52
84936;BME280;75210;52.210;20.902;2024-02-23T02:00:39;98257.59;;;9.32;69.57
84936;BME280;75210;52.210;20.902;2024-02-23T02:01:58;98251.72;;;9.28;69.39
84936;BME280;75210;52.210;20.902;2024-02-23T02:02:59;98245.78;;;9.26;69.56
84936;BME280;75210;52.210;20.902;2024-02-23T02:04:00;98262.97;;;9.30;69.61
84936;BME280;75210;52.210;20.902;2024-02-23T02:05:00;98239.44;;;9.18;69.12
84936;BME280;75210;52.210;20.902;2024-02-23T02:06:00;98243.88;;;9.17;69.74
84936;BME280;75210;52.210;20.902;2024-02-23T02:07:01;98201.41;;;8.90;69.88
84936;BME280;75210;52.210;20.902;2024-02-23T02:08:02;98258.09;;;9.26;70.07
84936;BME280;75210;52.210;20.902;2024-02-23T02:09:03;98253.69;;;9.26;69.79
84936;BME280;75210;52.210;20.902;2024-02-23T02:10:05;98241.00;;;9.20;69.55
84936;BME280;75210;52.210;20.902;2024-02-23T02:11:06;98248.16;;;9.29;69.86
84936;BME280;75210;52.210;20.902;2024-02-23T02:12:07;98249.25;;;9.27;69.94
84936;BME280;75210;52.210;20.902;2024-02-23T02:13:08;98242.88;;;9.29;69.54
84936;BME280;75210;52.210;20.902;2024-02-23T02:14:08;98253.41;;;9.29;70.06
84936;BME280;75210;52.210;20.902;2024-02-23T02:15:09;98240.75;;;9.23;70.02
84936;BME280;75210;52.210;20.902;2024-02-23T02:16:09;98248.41;;;9.26;69.97
84936;BME280;75210;52.210;20.902;2024-02-23T02:17:11;98241.22;;;9.28;69.92
84936;BME280;75210;52.210;20.902;2024-02-23T02:18:12;98239.41;;;9.29;70.10
84936;BME280;75210;52.210;20.902;2024-02-23T02:19:13;98242.88;;;9.29;69.97
84936;BME280;75210;52.210;20.902;2024-02-23T02:20:14;98225.47;;;9.17;70.21
84936;BME280;75210;52.210;20.902;2024-02-23T02:21:15;98227.38;;;9.15;70.07
84936;BME280;75210;52.210;20.902;2024-02-23T02:22:15;98225.47;;;9.17;70.15
84936;BME280;75210;52.210;20.902;2024-02-23T02:23:16;98250.53;;;9.32;70.02
84936;BME280;75210;52.210;20.902;2024-02-23T02:24:16;98251.00;;;9.38;69.64
84936;BME280;75210;52.210;20.902;2024-02-23T02:25:17;98245.75;;;9.38;69.84
84936;BME280;75210;52.210;20.902;2024-02-23T02:26:17;98243.25;;;9.36;69.38
84936;BME280;75210;52.210;20.902;2024-02-23T02:27:17;98243.81;;;9.40;69.82
84936;BME280;75210;52.210;20.902;2024-02-23T02:28:18;98226.78;;;9.23;69.82
84936;BME280;75210;52.210;20.902;2024-02-23T02:29:18;98232.03;;;9.23;69.95
84936;BME280;75210;52.210;20.902;2024-02-23T02:30:20;98248.16;;;9.29;69.83
84936;BME280;75210;52.210;20.902;2024-02-23T02:31:21;98222.72;;;9.19;69.67
84936;BME280;75210;52.210;20.902;2024-02-23T02:32:23;98243.34;;;9.34;69.87
84936;BME280;75210;52.210;20.902;2024-02-23T02:33:23;98241.69;;;9.33;69.84
84936;BME280;75210;52.210;20.902;2024-02-23T02:34:23;98241.94;;;9.30;69.60
84936;BME280;75210;52.210;20.902;2024-02-23T02:35:24;98242.66;;;9.32;70.07
84936;BME280;75210;52.210;20.902;2024-02-23T02:36:24;98216.41;;;9.10;70.26
84936;BME280;75210;52.210;20.902;2024-02-23T02:37:25;98236.91;;;9.27;70.26
84936;BME280;75210;52.210;20.902;2024-02-23T02:38:25;98243.34;;;9.34;69.70
84936;BME280;75210;52.210;20.902;2024-02-23T02:39:26;98227.50;;;9.25;70.06
84936;BME280;75210;52.210;20.902;2024-02-23T02:40:27;98242.88;;;9.29;70.22
84936;BME280;75210;52.210;20.902;2024-02-23T02:41:28;98213.97;;;9.18;70.19
84936;BME280;75210;52.210;20.902;2024-02-23T02:42:29;98190.88;;;9.01;70.21
84936;BME280;75210;52.210;20.902;2024-02-23T02:43:30;98254.47;;;9.38;70.13
84936;BME280;75210;52.210;20.902;2024-02-23T02:44:30;98245.34;;;9.42;70.61
84936;BME280;75210;52.210;20.902;2024-02-23T02:45:31;98247.28;;;9.40;70.25
84936;BME280;75210;52.210;20.902;2024-02-23T02:46:31;98232.97;;;9.33;70.57
84936;BME280;75210;52.210;20.902;2024-02-23T02:47:33;98236.63;;;9.42;70.03
84936;BME280;75210;52.210;20.902;2024-02-23T02:48:34;98242.16;;;9.39;69.96
84936;BME280;75210;52.210;20.902;2024-02-23T02:49:34;98240.38;;;9.39;70.18
84936;BME280;75210;52.210;20.902;2024-02-23T02:50:35;98245.03;;;9.35;70.05
84936;BME280;75210;52.210;20.902;2024-02-23T02:51:35;98248.63;;;9.34;70.22
84936;BME280;75210;52.210;20.902;2024-02-23T02:52:36;98218.28;;;9.19;70.16
84936;BME280;75210;52.210;20.902;2024-02-23T02:53:36;98244.06;;;9.36;70.14
84936;BME280;75210;52.210;20.902;2024-02-23T02:54:37;98234.03;;;9.30;70.08
84936;BME280;75210;52.210;20.902;2024-02-23T02:55:41;98244.06;;;9.36;70.15
84936;BME280;75210;52.210;20.902;2024-02-23T02:56:42;98243.81;;;9.40;70.24
84936;BME280;75210;52.210;20.902;2024-02-23T02:57:44;98235.78;;;9.41;70.09
84936;BME280;75210;52.210;20.902;2024-02-23T02:58:49;98246.06;;;9.44;70.08
84936;BME280;75210;52.210;20.902;2024-02-23T02:59:50;98243.31;;;9.46;69.94
84936;BME280;75210;52.210;20.902;2024-02-23T03:00:50;98242.72;;;9.42;70.06
84936;BME280;75210;52.210;20.902;2024-02-23T03:01:51;98237.47;;;9.42;70.13
84936;BME280;75210;52.210;20.902;2024-02-23T03:02:54;98247.88;;;9.44;70.28
84936;BME280;75210;52.210;20.902;2024-02-23T03:03:54;98248.56;;;9.46;70.59
84936;BME280;75210;52.210;20.902;2024-02-23T03:04:55;98231.63;;;9.39;70.25
84936;BME280;75210;52.210;20.902;2024-02-23T03:05:55;98247.94;;;9.53;70.59
84936;BME280;75210;52.210;20.902;2024-02-23T03:06:56;98256.22;;;9.49;70.78
84936;BME280;75210;52.210;20.902;2024-02-23T03:07:56;98216.56;;;9.29;70.95
84936;BME280;75210;52.210;20.902;2024-02-23T03:08:56;98241.75;;;9.43;71.04
84936;BME280;75210;52.210;20.902;2024-02-23T03:09:57;98252.28;;;9.43;72.61
84936;BME280;75210;52.210;20.902;2024-02-23T03:10:58;98255.56;;;9.35;72.75
84936;BME280;75210;52.210;20.902;2024-02-23T03:11:58;98255.09;;;9.30;73.09
84936;BME280;75210;52.210;20.902;2024-02-23T03:12:58;98251.84;;;9.38;73.11
84936;BME280;75210;52.210;20.902;2024-02-23T03:13:59;98257.09;;;9.38;72.96
84936;BME280;75210;52.210;20.902;2024-02-23T03:14:59;98258.31;;;9.34;73.78
84936;BME280;75210;52.210;20.902;2024-02-23T03:16:00;98225.97;;;9.11;74.11
84936;BME280;75210;52.210;20.902;2024-02-23T03:17:00;98258.31;;;9.34;74.26
84936;BME280;75210;52.210;20.902;2024-02-23T03:18:03;98225.13;;;9.11;75.06
84936;BME280;75210;52.210;20.902;2024-02-23T03:19:03;98243.28;;;9.25;74.38
84936;BME280;75210;52.210;20.902;2024-02-23T03:20:05;98253.19;;;9.21;74.02
84936;BME280;75210;52.210;20.902;2024-02-23T03:21:06;98239.38;;;9.08;75.44
84936;BME280;75210;52.210;20.902;2024-02-23T03:22:06;98267.66;;;9.16;76.53
84936;BME280;75210;52.210;20.902;2024-02-23T03:23:07;98256.81;;;9.09;76.99
84936;BME280;75210;52.210;20.902;2024-02-23T03:24:07;98263.50;;;9.13;76.25
84936;BME280;75210;52.210;20.902;2024-02-23T03:25:08;98275.72;;;9.14;77.10
84936;BME280;75210;52.210;20.902;2024-02-23T03:26:09;98265.44;;;9.11;76.82
84936;BME280;75210;52.210;20.902;2024-02-23T03:27:09;98140.09;;;8.35;77.09
84936;BME280;75210;52.210;20.902;2024-02-23T03:28:10;98262.81;;;9.11;76.88
84936;BME280;75210;52.210;20.902;2024-02-23T03:29:10;98272.09;;;9.15;76.82
84936;BME280;75210;52.210;20.902;2024-02-23T03:30:11;98263.88;;;9.09;77.50
84936;BME280;75210;52.210;20.902;2024-02-23T03:31:11;98275.34;;;9.08;78.18
84936;BME280;75210;52.210;20.902;2024-02-23T03:32:11;98278.47;;;9.13;78.00
84936;BME280;75210;52.210;20.902;2024-02-23T03:33:14;98246.56;;;8.95;77.47
84936;BME280;75210;52.210;20.902;2024-02-23T03:34:14;98272.59;;;9.09;77.96
84936;BME280;75210;52.210;20.902;2024-02-23T03:35:15;98275.94;;;9.11;77.46
84936;BME280;75210;52.210;20.902;2024-02-23T03:36:15;98279.66;;;9.09;77.83
84936;BME280;75210;52.210;20.902;2024-02-23T03:37:16;98278.22;;;9.05;78.68
84936;BME280;75210;52.210;20.902;2024-02-23T03:38:16;98259.72;;;8.95;78.24
84936;BME280;75210;52.210;20.902;2024-02-23T03:39:17;98283.03;;;8.99;78.78
84936;BME280;75210;52.210;20.902;2024-02-23T03:40:17;98242.41;;;8.81;78.45
84936;BME280;75210;52.210;20.902;2024-02-23T03:41:18;98264.72;;;8.98;78.38
84936;BME280;75210;52.210;20.902;2024-02-23T03:42:18;98262.13;;;8.87;78.37
84936;BME280;75210;52.210;20.902;2024-02-23T03:43:19;98273.81;;;8.83;78.96
84936;BME280;75210;52.210;20.902;2024-02-23T03:44:19;98269.75;;;8.79;79.62
84936;BME280;75210;52.210;20.902;2024-02-23T03:45:19;98282.78;;;8.80;80.10
84936;BME280;75210;52.210;20.902;2024-02-23T03:46:20;98286.13;;;8.82;80.37
84936;BME280;75210;52.210;20.902;2024-02-23T03:47:20;98280.16;;;8.80;80.80
84936;BME280;75210;52.210;20.902;2024-02-23T03:48:23;98271.81;;;8.86;79.33
84936;BME280;75210;52.210;20.902;2024-02-23T03:49:23;98242.41;;;8.59;80.46
84936;BME280;75210;52.210;20.902;2024-02-23T03:50:23;98293.41;;;8.79;80.86
84936;BME280;75210;52.210;20.902;2024-02-23T03:51:24;98294.41;;;8.78;81.19
84936;BME280;75210;52.210;20.902;2024-02-23T03:52:24;98292.56;;;8.78;80.93
84936;BME280;75210;52.210;20.902;2024-02-23T03:53:25;98295.09;;;8.80;80.47
84936;BME280;75210;52.210;20.902;2024-02-23T03:54:25;98294.50;;;8.76;80.94
84936;BME280;75210;52.210;20.902;2024-02-23T03:55:26;98295.47;;;8.75;80.67
84936;BME280;75210;52.210;20.902;2024-02-23T03:56:26;98301.56;;;8.76;80.70
84936;BME280;75210;52.210;20.902;2024-02-23T03:57:27;98299.78;;;8.76;80.79
84936;BME280;75210;52.210;20.902;2024-02-23T03:58:27;98291.06;;;8.76;81.49
84936;BME280;75210;52.210;20.902;2024-02-23T03:59:27;98277.91;;;8.64;80.74
84936;BME280;75210;52.210;20.902;2024-02-23T04:00:28;98303.25;;;8.77;81.44
84936;BME280;75210;52.210;20.902;2024-02-23T04:01:28;98295.47;;;8.75;80.96
84936;BME280;75210;52.210;20.902;2024-02-23T04:02:29;98299.66;;;8.78;80.98
84936;BME280;75210;52.210;20.902;2024-02-23T04:03:31;98297.72;;;8.69;81.84
84936;BME280;75210;52.210;20.902;2024-02-23T04:04:32;98301.56;;;8.64;82.09
84936;BME280;75210;52.210;20.902;2024-02-23T04:05:32;98300.97;;;8.72;81.83
84936;BME280;75210;52.210;20.902;2024-02-23T04:06:33;98288.44;;;8.64;81.63
84936;BME280;75210;52.210;20.902;2024-02-23T04:07:34;98301.56;;;8.64;81.78
84936;BME280;75210;52.210;20.902;2024-02-23T04:08:34;98304.19;;;8.64;82.14
84936;BME280;75210;52.210;20.902;2024-02-23T04:09:35;98303.47;;;8.62;82.74
84936;BME280;75210;52.210;20.902;2024-02-23T04:10:35;98263.22;;;8.40;82.64
84936;BME280;75210;52.210;20.902;2024-02-23T04:11:36;98283.75;;;8.46;82.25
84936;BME280;75210;52.210;20.902;2024-02-23T04:12:36;98305.84;;;8.65;82.26
84936;BME280;75210;52.210;20.902;2024-02-23T04:13:36;98308.47;;;8.65;81.91
84936;BME280;75210;52.210;20.902;2024-02-23T04:14:37;98313.72;;;8.65;82.76
84936;BME280;75210;52.210;20.902;2024-02-23T04:15:38;98316.72;;;8.61;83.04
84936;BME280;75210;52.210;20.902;2024-02-23T04:16:38;98311.59;;;8.59;83.32
84936;BME280;75210;52.210;20.902;2024-02-23T04:17:40;98287.56;;;8.42;82.26
84936;BME280;75210;52.210;20.902;2024-02-23T04:18:42;98309.41;;;8.53;83.18
84936;BME280;75210;52.210;20.902;2024-02-23T04:19:43;98307.63;;;8.54;82.78
84936;BME280;75210;52.210;20.902;2024-02-23T04:20:43;98301.31;;;8.56;83.33
84936;BME280;75210;52.210;20.902;2024-02-23T04:21:44;98289.00;;;8.46;83.24
84936;BME280;75210;52.210;20.902;2024-02-23T04:22:44;98318.50;;;8.60;83.39
84936;BME280;75210;52.210;20.902;2024-02-23T04:23:45;98289.84;;;8.46;83.44
84936;BME280;75210;52.210;20.902;2024-02-23T04:24:45;98320.66;;;8.55;83.66
84936;BME280;75210;52.210;20.902;2024-02-23T04:25:52;98312.75;;;8.55;83.71
84936;BME280;75210;52.210;20.902;2024-02-23T04:26:52;98320.53;;;8.57;83.52
84936;BME280;75210;52.210;20.902;2024-02-23T04:27:52;98312.63;;;8.46;83.92
84936;BME280;75210;52.210;20.902;2024-02-23T04:28:53;98314.22;;;8.48;84.09
84936;BME280;75210;52.210;20.902;2024-02-23T04:29:53;98314.81;;;8.52;84.04
84936;BME280;75210;52.210;20.902;2024-02-23T04:30:54;98310.25;;;8.54;83.61
84936;BME280;75210;52.210;20.902;2024-02-23T04:31:54;98317.78;;;8.58;83.47
84936;BME280;75210;52.210;20.902;2024-02-23T04:32:57;98322.31;;;8.56;83.41
84936;BME280;75210;52.210;20.902;2024-02-23T04:33:59;98321.38;;;8.57;83.63
84936;BME280;75210;52.210;20.902;2024-02-23T04:35:00;98314.09;;;8.50;83.23
84936;BME280;75210;52.210;20.902;2024-02-23T04:36:00;98325.69;;;8.58;83.31
84936;BME280;75210;52.210;20.902;2024-02-23T04:37:01;98322.22;;;8.58;83.40
84936;BME280;75210;52.210;20.902;2024-02-23T04:38:01;98315.75;;;8.51;83.78
84936;BME280;75210;52.210;20.902;2024-02-23T04:39:02;98320.28;;;8.49;84.24
84936;BME280;75210;52.210;20.902;2024-02-23T04:40:03;98323.16;;;8.57;83.95
84936;BME280;75210;52.210;20.902;2024-02-23T04:41:04;98279.50;;;8.21;83.84
84936;BME280;75210;52.210;20.902;2024-02-23T04:42:05;98325.19;;;8.53;83.94
84936;BME280;75210;52.210;20.902;2024-02-23T04:43:05;98318.13;;;8.54;83.79
84936;BME280;75210;52.210;20.902;2024-02-23T04:44:06;98204.69;;;7.80;83.50
84936;BME280;75210;52.210;20.902;2024-02-23T04:45:07;98333.78;;;8.55;84.51
84936;BME280;75210;52.210;20.902;2024-02-23T04:46:07;98334.88;;;8.53;84.39
84936;BME280;75210;52.210;20.902;2024-02-23T04:47:08;98330.22;;;8.56;84.28
84936;BME280;75210;52.210;20.902;2024-02-23T04:48:08;98330.44;;;8.53;84.39
84936;BME280;75210;52.210;20.902;2024-02-23T04:49:11;98294.66;;;8.28;84.67
84936;BME280;75210;52.210;20.902;2024-02-23T04:50:12;98339.88;;;8.56;84.98
84936;BME280;75210;52.210;20.902;2024-02-23T04:51:12;98307.72;;;8.41;84.19
84936;BME280;75210;52.210;20.902;2024-02-23T04:52:13;98341.34;;;8.60;84.55
84936;BME280;75210;52.210;20.902;2024-02-23T04:53:13;98338.09;;;8.56;84.37
84936;BME280;75210;52.210;20.902;2024-02-23T04:54:14;98345.63;;;8.61;84.06
84936;BME280;75210;52.210;20.902;2024-02-23T04:55:14;98349.72;;;8.65;84.08
84936;BME280;75210;52.210;20.902;2024-02-23T04:56:15;98353.28;;;8.64;84.46
84936;BME280;75210;52.210;20.902;2024-02-23T04:57:16;98342.91;;;8.62;84.52
84936;BME280;75210;52.210;20.902;2024-02-23T04:58:16;98345.03;;;8.57;84.86
84936;BME280;75210;52.210;20.902;2024-02-23T04:59:17;98351.22;;;8.56;84.85
84936;BME280;75210;52.210;20.902;2024-02-23T05:00:18;98353.63;;;8.59;85.09
84936;BME280;75210;52.210;20.902;2024-02-23T05:01:18;98332.25;;;8.53;84.93
84936;BME280;75210;52.210;20.902;2024-02-23T05:02:22;98319.47;;;8.48;84.41
84936;BME280;75210;52.210;20.902;2024-02-23T05:03:27;98226.81;;;7.89;85.28
84936;BME280;75210;52.210;20.902;2024-02-23T05:04:31;98348.38;;;8.59;85.12
84936;BME280;75210;52.210;20.902;2024-02-23T05:05:32;98357.22;;;8.58;85.57
84936;BME280;75210;52.210;20.902;2024-02-23T05:06:32;98353.41;;;8.62;84.79
84936;BME280;75210;52.210;20.902;2024-02-23T05:07:33;98335.56;;;8.55;84.22
84936;BME280;75210;52.210;20.902;2024-02-23T05:08:33;98352.91;;;8.57;85.69
84936;BME280;75210;52.210;20.902;2024-02-23T05:09:35;98303.63;;;8.26;85.35
84936;BME280;75210;52.210;20.902;2024-02-23T05:10:35;98353.84;;;8.45;85.75
84936;BME280;75210;52.210;20.902;2024-02-23T05:11:36;98264.75;;;7.96;85.79
84936;BME280;75210;52.210;20.902;2024-02-23T05:12:36;98354.56;;;8.47;85.67
84936;BME280;75210;52.210;20.902;2024-02-23T05:13:37;98328.00;;;8.28;86.30
84936;BME280;75210;52.210;20.902;2024-02-23T05:14:37;98303.22;;;8.08;86.20
84936;BME280;75210;52.210;20.902;2024-02-23T05:15:38;98360.28;;;8.41;86.64
84936;BME280;75210;52.210;20.902;2024-02-23T05:16:38;98310.75;;;8.13;86.28
84936;BME280;75210;52.210;20.902;2024-02-23T05:17:39;98366.88;;;8.47;86.65
84936;BME280;75210;52.210;20.902;2024-02-23T05:18:39;98367.59;;;8.49;86.52
84936;BME280;75210;52.210;20.902;2024-02-23T05:19:41;98371.69;;;8.53;86.30
84936;BME280;75210;52.210;20.902;2024-02-23T05:20:42;98367.38;;;8.52;86.25
84936;BME280;75210;52.210;20.902;2024-02-23T05:21:42;98332.41;;;8.27;86.77